Terminal Aerodrome Forecast
Issued by NWS Twin Cities, MN

Home | Current Version | Previous Version | Text Only | Print | Product List | Glossary Off
Versions: 1 2 3 4 5 6 7 8 9 10 11 12 13 14 15 16 17 18 19 20 21

682
FTUS43 KMPX 222134 AAA
TAFEAU
TAF AMD
KEAU 222134Z 2222/2318 27012KT P6SM TSRA SCT040CB BKN060
     FM222215 28010KT P6SM VCTS SCT040CB
     FM230000 26004KT P6SM SCT200
     FM231700 33007KT P6SM SCT025 BKN040=

USA.gov is the U.S. government's official web portal to all federal, state and local government web resources and services.